createdAt,value
2019-02-26T00:01:50.719Z,41.17
2019-02-26T00:04:54.072Z,44.50
2019-02-26T00:07:57.944Z,46.83
2019-02-26T00:11:01.164Z,46.23
2019-02-26T00:14:04.544Z,42.67
2019-02-26T00:17:10.598Z,38.47
2019-02-26T00:20:12.687Z,40.57
2019-02-26T00:23:14.143Z,43.23
2019-02-26T00:26:17.748Z,40.63
2019-02-26T00:29:23.147Z,40.13
2019-02-26T00:32:24.959Z,44.47
2019-02-26T00:35:27.622Z,40.97
2019-02-26T00:38:29.826Z,45.67
2019-02-26T00:41:33.471Z,43.03
2019-02-26T00:44:37.340Z,38.93
2019-02-26T00:47:41.067Z,43.83
2019-02-26T00:50:43.214Z,45.83
2019-02-26T00:53:48.852Z,37.90
2019-02-26T00:56:48.863Z,40.60
2019-02-26T00:59:50.822Z,36.73
2019-02-26T01:02:52.673Z,37.80
2019-02-26T01:05:54.554Z,33.47
2019-02-26T01:08:56.433Z,37.87
2019-02-26T01:11:58.343Z,41.17
2019-02-26T01:15:02.577Z,38.53
2019-02-26T01:18:05.628Z,43.80
2019-02-26T01:21:07.663Z,43.13
2019-02-26T01:24:09.600Z,43.23
2019-02-26T01:27:11.491Z,42.13
2019-02-26T01:30:18.274Z,41.07
2019-02-26T01:33:18.738Z,37.50
2019-02-26T01:36:23.038Z,41.03
2019-02-26T01:39:24.578Z,40.47
2019-02-26T01:42:27.551Z,41.60
2019-02-26T01:45:32.364Z,42.70
2019-02-26T01:48:36.556Z,36.50
2019-02-26T01:51:38.240Z,43.10
2019-02-26T01:54:40.225Z,44.87
2019-02-26T01:57:43.374Z,44.63
2019-02-26T02:00:45.910Z,44.43
2019-02-26T02:03:48.796Z,40.73
2019-02-26T02:06:51.703Z,41.07
2019-02-26T02:09:55.550Z,42.03
2019-02-26T02:12:59.746Z,40.27
2019-02-26T02:16:02.117Z,52.10
2019-02-26T02:19:05.330Z,45.17
2019-02-26T02:22:07.171Z,44.73
2019-02-26T02:25:10.931Z,45.93
2019-02-26T02:28:12.864Z,43.53
2019-02-26T02:31:14.741Z,41.93
2019-02-26T02:34:16.682Z,41.90
2019-02-26T02:37:23.777Z,41.77
2019-02-26T02:40:22.465Z,43.47
2019-02-26T02:43:24.383Z,48.30
2019-02-26T02:46:26.298Z,45.03
2019-02-26T02:49:29.598Z,47.80
2019-02-26T02:52:33.174Z,46.17
2019-02-26T02:55:37.905Z,45.90
2019-02-26T02:58:41.804Z,48.30
2019-02-26T03:01:45.826Z,50.17
2019-02-26T03:04:47.548Z,52.50
2019-02-26T03:07:51.653Z,52.70
2019-02-26T03:10:53.253Z,45.93
2019-02-26T03:13:55.157Z,51.03
2019-02-26T03:16:57.207Z,50.07
2019-02-26T03:20:01.665Z,46.90
2019-02-26T03:23:04.559Z,49.07
2019-02-26T03:26:10.006Z,51.70
2019-02-26T03:29:10.615Z,48.23
2019-02-26T03:32:12.513Z,63.93
2019-02-26T03:35:16.708Z,54.10
2019-02-26T03:38:20.629Z,52.73
2019-02-26T03:41:23.489Z,56.47
2019-02-26T03:44:29.565Z,50.43
2019-02-26T03:47:29.907Z,57.60
2019-02-26T03:50:31.734Z,55.40
2019-02-26T03:53:35.794Z,56.57
2019-02-26T03:56:37.464Z,56.83
2019-02-26T03:59:39.342Z,57.53
2019-02-26T04:02:45.638Z,49.17
2019-02-26T04:05:46.507Z,46.03
2019-02-26T04:08:50.568Z,52.13
2019-02-26T04:11:53.439Z,52.93
2019-02-26T04:14:56.304Z,50.37
2019-02-26T04:17:58.377Z,52.77
2019-02-26T04:21:05.762Z,50.60
2019-02-26T04:24:05.908Z,49.50
2019-02-26T04:27:44.217Z,46.40
2019-02-26T04:30:55.563Z,55.10
2019-02-26T04:34:09.931Z,50.83
2019-02-26T04:37:42.896Z,54.57
2019-02-26T04:40:48.503Z,47.63
2019-02-26T04:44:09.098Z,57.87
2019-02-26T04:47:11.711Z,50.43
2019-02-26T04:50:13.737Z,56.43
2019-02-26T04:53:15.763Z,59.27
2019-02-26T04:56:17.752Z,51.37
2019-02-26T04:59:19.752Z,58.53
2019-02-26T05:02:21.660Z,50.43
2019-02-26T05:05:25.889Z,49.50
2019-02-26T05:08:29.228Z,55.07
2019-02-26T05:11:34.971Z,53.53
2019-02-26T05:14:35.123Z,51.70
2019-02-26T05:17:37.036Z,52.67
2019-02-26T05:20:42.571Z,53.57
2019-02-26T05:23:42.985Z,55.23
2019-02-26T05:26:45.368Z,53.53
2019-02-26T05:29:49.054Z,57.03
2019-02-26T05:32:54.104Z,54.00
2019-02-26T05:35:55.183Z,58.40
2019-02-26T05:38:59.588Z,48.70
2019-02-26T05:42:03.195Z,56.50
2019-02-26T05:45:08.420Z,53.60
2019-02-26T05:48:09.412Z,54.40
2019-02-26T05:51:11.600Z,56.07
2019-02-26T05:54:17.433Z,59.30
2019-02-26T05:57:27.698Z,59.23
2019-02-26T06:00:25.530Z,58.90
2019-02-26T06:03:26.062Z,57.00
2019-02-26T06:06:28.022Z,54.00
2019-02-26T06:09:33.006Z,57.60
2019-02-26T06:12:35.522Z,61.40
2019-02-26T06:15:37.884Z,52.77
2019-02-26T06:18:41.915Z,57.63
2019-02-26T06:21:44.753Z,47.67
2019-02-26T06:24:47.590Z,54.23
2019-02-26T06:27:50.961Z,53.07
2019-02-26T06:30:55.041Z,54.50
2019-02-26T06:33:56.838Z,52.90
2019-02-26T06:37:16.508Z,53.20
2019-02-26T06:40:18.190Z,49.63
2019-02-26T06:43:20.135Z,48.10
2019-02-26T06:46:22.359Z,51.10
2019-02-26T06:49:26.771Z,48.87
2019-02-26T06:52:29.940Z,48.10
2019-02-26T06:55:32.502Z,47.23
2019-02-26T06:58:35.784Z,55.63
2019-02-26T07:01:39.632Z,49.10
2019-02-26T07:04:42.205Z,51.27
2019-02-26T07:07:44.233Z,60.57
2019-02-26T07:10:46.224Z,53.17
2019-02-26T07:13:48.196Z,50.90
2019-02-26T07:16:50.252Z,48.87
2019-02-26T07:19:53.837Z,51.43
2019-02-26T07:22:56.468Z,47.57
2019-02-26T07:25:58.386Z,52.80
2019-02-26T07:29:00.471Z,51.10
2019-02-26T07:32:02.335Z,52.87
2019-02-26T07:35:08.724Z,55.03
2019-02-26T07:38:11.474Z,59.67
2019-02-26T07:41:14.439Z,57.47
2019-02-26T07:44:18.852Z,53.30
2019-02-26T07:47:22.076Z,53.87
2019-02-26T07:50:24.110Z,53.10
2019-02-26T07:53:26.275Z,51.20
2019-02-26T07:56:32.083Z,57.83
2019-02-26T07:59:34.415Z,53.17
2019-02-26T08:02:37.265Z,55.83
2019-02-26T08:05:39.349Z,52.10
2019-02-26T08:08:42.127Z,53.17
2019-02-26T08:11:48.506Z,57.00
2019-02-26T08:14:50.106Z,51.03
2019-02-26T08:17:56.006Z,58.37
2019-02-26T08:20:57.969Z,52.23
2019-02-26T08:24:00.427Z,54.90
2019-02-26T08:27:03.411Z,53.27
2019-02-26T08:30:14.486Z,55.23
2019-02-26T08:33:16.243Z,53.57
2019-02-26T08:36:18.228Z,53.43
2019-02-26T08:39:20.134Z,55.73
2019-02-26T08:42:22.824Z,56.10
2019-02-26T08:45:25.757Z,60.33
2019-02-26T08:48:28.006Z,58.90
2019-02-26T08:51:29.988Z,54.13
2019-02-26T08:54:33.334Z,61.93
2019-02-26T08:57:35.865Z,56.53
2019-02-26T09:00:37.757Z,58.10
2019-02-26T09:03:40.961Z,58.43
2019-02-26T09:06:43.089Z,60.83
2019-02-26T09:09:47.537Z,53.17
2019-02-26T09:12:51.707Z,54.60
2019-02-26T09:15:52.841Z,55.57
2019-02-26T09:18:54.693Z,54.90
2019-02-26T09:21:56.677Z,52.40
2019-02-26T09:24:59.913Z,50.27
2019-02-26T09:28:02.662Z,58.57
2019-02-26T09:31:06.637Z,46.63
2019-02-26T09:34:08.502Z,57.40
2019-02-26T09:37:10.464Z,53.93
2019-02-26T09:40:20.151Z,63.10
2019-02-26T09:43:22.636Z,55.03
2019-02-26T09:46:25.437Z,59.17
2019-02-26T09:49:30.791Z,55.20
2019-02-26T09:52:32.738Z,51.63
2019-02-26T09:55:37.677Z,55.40
2019-02-26T09:58:41.180Z,56.20
2019-02-26T10:01:43.928Z,59.57
2019-02-26T10:04:47.779Z,56.77
2019-02-26T10:07:52.333Z,61.37
2019-02-26T10:10:54.999Z,53.07
2019-02-26T10:13:57.544Z,58.90
2019-02-26T10:16:59.462Z,77.40
2019-02-26T10:20:02.325Z,68.27
2019-02-26T10:23:06.390Z,61.23
2019-02-26T10:26:10.695Z,59.90
2019-02-26T10:29:12.803Z,56.47
2019-02-26T10:32:14.738Z,61.97
2019-02-26T10:35:22.608Z,49.90
2019-02-26T10:38:28.888Z,66.97
2019-02-26T10:41:28.694Z,60.57
2019-02-26T10:44:30.622Z,59.83
2019-02-26T10:47:34.680Z,56.33
2019-02-26T10:50:39.314Z,65.27
2019-02-26T10:53:40.835Z,58.57
2019-02-26T10:56:44.856Z,60.63
2019-02-26T10:59:46.616Z,56.30
2019-02-26T11:02:50.951Z,54.37
2019-02-26T11:05:52.511Z,49.93
2019-02-26T11:08:58.718Z,56.10
2019-02-26T11:12:00.814Z,51.53
2019-02-26T11:15:09.364Z,52.13
2019-02-26T11:18:12.317Z,51.03
2019-02-26T11:21:15.213Z,52.43
2019-02-26T11:24:17.265Z,53.73
2019-02-26T11:27:19.392Z,48.17
2019-02-26T11:30:25.839Z,54.57
2019-02-26T11:33:27.501Z,43.50
2019-02-26T11:36:31.282Z,48.17
2019-02-26T11:39:33.338Z,43.73
2019-02-26T11:42:35.546Z,46.17
2019-02-26T11:45:39.531Z,44.73
2019-02-26T11:48:41.354Z,51.73
2019-02-26T11:51:43.592Z,48.40
2019-02-26T11:54:45.654Z,51.33
2019-02-26T11:57:49.737Z,50.10
2019-02-26T12:00:53.414Z,51.27
2019-02-26T12:03:56.185Z,47.73
2019-02-26T12:07:01.770Z,52.27
2019-02-26T12:10:14.530Z,55.10
2019-02-26T12:13:17.086Z,52.70
2019-02-26T12:16:20.315Z,52.13
2019-02-26T12:19:23.122Z,54.17
2019-02-26T12:22:27.862Z,52.10
2019-02-26T12:25:29.925Z,55.77
2019-02-26T12:28:34.678Z,48.13
2019-02-26T12:31:36.957Z,48.30
2019-02-26T12:34:41.219Z,54.40
2019-02-26T12:37:43.555Z,50.37
2019-02-26T12:40:47.193Z,53.03
2019-02-26T12:43:49.445Z,59.83
2019-02-26T12:46:53.622Z,48.67
2019-02-26T12:49:56.217Z,63.73
2019-02-26T12:52:58.772Z,68.30
2019-02-26T12:56:02.593Z,63.70
2019-02-26T12:59:07.121Z,53.67
2019-02-26T13:02:12.198Z,47.87
2019-02-26T13:05:14.108Z,51.70
2019-02-26T13:08:19.773Z,63.23
2019-02-26T13:11:24.125Z,64.70
2019-02-26T13:14:24.455Z,58.83
2019-02-26T13:17:28.726Z,44.40
2019-02-26T13:20:30.341Z,51.93
2019-02-26T13:23:32.214Z,58.30
2019-02-26T13:26:36.315Z,56.20
2019-02-26T13:29:42.583Z,54.30
2019-02-26T13:32:55.290Z,52.90
2019-02-26T13:35:50.697Z,61.23
2019-02-26T13:38:49.824Z,52.13
2019-02-26T13:41:58.589Z,60.93
2019-02-26T13:44:55.566Z,56.33
2019-02-26T13:48:01.169Z,58.80
2019-02-26T13:51:01.389Z,96.67
2019-02-26T13:54:03.281Z,103.73
2019-02-26T13:57:05.147Z,48.13
2019-02-26T14:00:10.550Z,41.57
2019-02-26T14:03:12.500Z,46.60
2019-02-26T14:06:14.632Z,52.23
2019-02-26T14:09:16.651Z,52.20
2019-02-26T14:12:18.588Z,50.83
2019-02-26T14:15:25.490Z,46.83
2019-02-26T14:18:27.590Z,44.73
2019-02-26T14:21:29.526Z,46.40
2019-02-26T14:24:31.749Z,49.90
2019-02-26T14:27:33.721Z,45.43
2019-02-26T14:30:35.953Z,50.10
2019-02-26T14:33:37.872Z,43.63
2019-02-26T14:36:39.809Z,51.43
2019-02-26T14:39:41.877Z,48.20
2019-02-26T14:42:43.838Z,48.80
2019-02-26T14:45:45.800Z,48.50
2019-02-26T14:48:47.803Z,51.30
2019-02-26T14:51:49.748Z,51.13
2019-02-26T14:54:51.707Z,46.07
2019-02-26T14:57:53.631Z,101.03
2019-02-26T15:00:57.937Z,65.37
2019-02-26T15:03:59.420Z,722.07
2019-02-26T15:07:01.804Z,335.33
2019-02-26T15:10:07.150Z,141.40
2019-02-26T15:13:09.112Z,123.47
2019-02-26T15:16:11.003Z,547.30
2019-02-26T15:19:14.032Z,497.77
2019-02-26T15:22:15.887Z,573.87
2019-02-26T15:25:23.198Z,262.60
2019-02-26T15:28:25.154Z,317.60
2019-02-26T15:31:27.516Z,275.23
2019-02-26T15:34:29.484Z,64.87
2019-02-26T15:37:31.443Z,81.97
2019-02-26T15:40:33.393Z,94.60
2019-02-26T15:43:35.385Z,72.13
2019-02-26T15:46:37.340Z,159.53
2019-02-26T15:49:39.421Z,193.60
2019-02-26T15:52:42.537Z,179.37
2019-02-26T15:55:44.437Z,194.67
2019-02-26T15:58:46.359Z,323.60
2019-02-26T16:01:48.355Z,276.83
2019-02-26T16:04:50.433Z,132.03
2019-02-26T16:07:53.141Z,187.90
2019-02-26T16:10:55.684Z,159.50
2019-02-26T16:13:57.555Z,93.27
2019-02-26T16:16:59.520Z,109.53
2019-02-26T16:20:01.439Z,57.10
2019-02-26T16:23:04.772Z,57.20
2019-02-26T16:26:08.056Z,61.47
2019-02-26T16:29:11.800Z,53.87
2019-02-26T16:32:22.558Z,70.67
2019-02-26T16:35:25.738Z,158.00
2019-02-26T16:38:27.908Z,174.13
2019-02-26T16:41:30.161Z,175.00
2019-02-26T16:44:32.244Z,156.03
2019-02-26T16:47:38.755Z,109.90
2019-02-26T16:50:40.633Z,88.63
2019-02-26T16:53:42.575Z,82.47
2019-02-26T16:56:44.949Z,86.67
2019-02-26T16:59:47.165Z,108.27
2019-02-26T17:02:49.449Z,87.93
2019-02-26T17:05:51.350Z,69.30
2019-02-26T17:08:54.142Z,90.73
2019-02-26T17:11:56.133Z,86.90
2019-02-26T17:14:58.556Z,65.03
2019-02-26T17:18:00.877Z,93.20
2019-02-26T17:21:02.797Z,68.67
2019-02-26T17:24:04.735Z,78.70
2019-02-26T17:27:08.330Z,74.33
2019-02-26T17:30:16.950Z,67.13
2019-02-26T17:33:22.831Z,76.17
2019-02-26T17:36:24.846Z,72.73
2019-02-26T17:39:28.740Z,77.80
2019-02-26T17:42:32.296Z,72.23
2019-02-26T17:45:37.317Z,74.20
2019-02-26T17:48:43.569Z,82.00
2019-02-26T17:51:44.618Z,75.20
2019-02-26T17:54:49.732Z,72.27
2019-02-26T17:57:51.958Z,73.70
2019-02-26T18:01:00.665Z,74.93
2019-02-26T18:04:05.409Z,82.33
2019-02-26T18:07:11.327Z,81.47
2019-02-26T18:10:22.573Z,79.13
2019-02-26T18:13:25.882Z,69.53
2019-02-26T18:16:31.767Z,67.07
2019-02-26T18:19:41.621Z,76.93
2019-02-26T18:22:44.406Z,74.63
2019-02-26T18:25:46.349Z,70.20
2019-02-26T18:28:50.900Z,71.87
2019-02-26T18:31:54.621Z,75.83
2019-02-26T18:34:57.921Z,81.07
2019-02-26T18:38:00.878Z,88.17
2019-02-26T18:41:05.272Z,78.47
2019-02-26T18:44:09.613Z,72.27
2019-02-26T18:47:11.959Z,79.07
2019-02-26T18:50:14.282Z,77.63
2019-02-26T18:53:16.267Z,73.40
2019-02-26T18:56:18.176Z,84.03
2019-02-26T18:59:21.633Z,85.60
2019-02-26T19:02:23.951Z,87.63
2019-02-26T19:05:27.943Z,80.07
2019-02-26T19:08:31.084Z,81.23
2019-02-26T19:11:33.042Z,84.83
2019-02-26T19:14:41.863Z,90.57
2019-02-26T19:17:44.482Z,85.60
2019-02-26T19:20:49.110Z,108.07
2019-02-26T19:23:53.594Z,203.87
2019-02-26T19:26:58.760Z,161.40
2019-02-26T19:30:04.202Z,97.20
2019-02-26T19:33:09.907Z,84.53
2019-02-26T19:36:13.910Z,82.20
2019-02-26T19:39:15.807Z,96.60
2019-02-26T19:42:21.106Z,80.23
2019-02-26T19:45:24.620Z,91.83
2019-02-26T19:48:30.392Z,85.77
2019-02-26T19:51:30.503Z,97.23
2019-02-26T19:54:32.711Z,96.97
2019-02-26T19:57:35.369Z,98.27
2019-02-26T20:00:37.231Z,102.23
2019-02-26T20:03:40.131Z,96.07
2019-02-26T20:06:46.182Z,96.30
2019-02-26T20:09:52.347Z,87.73
2019-02-26T20:13:00.550Z,88.43
2019-02-26T20:16:05.096Z,95.23
2019-02-26T20:19:10.913Z,85.43
2019-02-26T20:22:13.433Z,87.57
2019-02-26T20:25:22.776Z,87.83
2019-02-26T20:28:27.801Z,101.90
2019-02-26T20:31:29.763Z,98.43
2019-02-26T20:34:32.466Z,83.67
2019-02-26T20:37:38.347Z,84.53
2019-02-26T20:40:40.229Z,100.80
2019-02-26T20:43:42.252Z,106.90
2019-02-26T20:46:44.964Z,102.90
2019-02-26T20:49:48.805Z,114.37
2019-02-26T20:52:50.733Z,115.03
2019-02-26T20:55:57.457Z,113.60
2019-02-26T20:58:57.563Z,116.17
2019-02-26T21:01:59.500Z,114.83
2019-02-26T21:05:06.379Z,103.93
2019-02-26T21:08:09.793Z,112.70
2019-02-26T21:11:14.404Z,109.70
2019-02-26T21:14:16.684Z,103.43
2019-02-26T21:17:19.010Z,102.70
2019-02-26T21:20:23.732Z,109.37
2019-02-26T21:23:27.820Z,103.57
2019-02-26T21:26:30.290Z,91.00
2019-02-26T21:29:33.990Z,100.43
2019-02-26T21:32:36.065Z,91.70
2019-02-26T21:35:38.042Z,92.50
2019-02-26T21:38:41.605Z,94.00
2019-02-26T21:41:43.554Z,92.03
2019-02-26T21:44:46.677Z,102.53
2019-02-26T21:47:48.576Z,104.60
2019-02-26T21:50:54.473Z,97.00
2019-02-26T21:53:54.352Z,106.73
2019-02-26T21:56:56.234Z,100.60
2019-02-26T21:59:58.237Z,110.83
2019-02-26T22:03:00.140Z,105.53
2019-02-26T22:06:05.371Z,101.20
2019-02-26T22:09:05.955Z,99.50
2019-02-26T22:12:09.767Z,111.10
2019-02-26T22:15:13.329Z,106.23
2019-02-26T22:18:15.192Z,102.63
2019-02-26T22:21:19.062Z,109.90
2019-02-26T22:24:21.319Z,105.20
2019-02-26T22:27:23.223Z,102.30
2019-02-26T22:30:25.165Z,117.67
2019-02-26T22:33:27.112Z,112.83
2019-02-26T22:36:30.795Z,106.97
2019-02-26T22:39:33.015Z,101.53
2019-02-26T22:42:34.945Z,103.60
2019-02-26T22:45:36.827Z,110.73
2019-02-26T22:48:38.720Z,121.37
2019-02-26T22:51:40.619Z,119.70
2019-02-26T22:54:43.468Z,109.00
2019-02-26T22:57:45.727Z,129.87
2019-02-26T23:00:55.810Z,123.60
2019-02-26T23:03:59.480Z,108.93
2019-02-26T23:07:04.570Z,122.00
2019-02-26T23:10:05.580Z,130.23
2019-02-26T23:13:09.544Z,118.90
2019-02-26T23:16:11.579Z,128.83
2019-02-26T23:19:14.274Z,124.70
2019-02-26T23:22:17.380Z,113.40
2019-02-26T23:25:19.325Z,131.90
2019-02-26T23:28:21.871Z,110.63
2019-02-26T23:31:24.660Z,121.37
2019-02-26T23:34:26.543Z,125.80
2019-02-26T23:37:29.064Z,129.40
2019-02-26T23:40:31.058Z,110.83
2019-02-26T23:43:32.972Z,137.83
2019-02-26T23:46:35.599Z,126.77
2019-02-26T23:49:37.573Z,132.10
2019-02-26T23:52:39.544Z,144.53
2019-02-26T23:55:46.385Z,129.23
2019-02-26T23:58:45.328Z,145.67
